Aeroporto :
LOGIN :

Iscrizione | Disclaimer

   EN    FR    IT 

 










Sommario :    VFR   VFR Marginale   IFR   IFR Intensivo   IFR Molto Intensivo
Visibilità : 
Base nubi : 
>= 8 km
>= 3000ft
5 / 8 km
1000 / 3000 ft
1500m / 5 km
500 / 1000 ft
800 / 1500m
200 / 500 ft
< 800m
< 200 ft
Simboli :   Temporali  Nebbia  Neve Forte  Precipitazioni Forti  Vento > 20 kt
SIGMETs :   Varie  Temporali  Ghiacco  Turbolenza  Onda orograficha  Ceneri Vulcaniche







- Altitudine del aeroporto : 29 ft
- Codice IATA : SVG


ENZV - Sola

ULTIMO METAR :
  • 180420Z 16009KT 7000 -RA NSC 13/12 Q1013 TEMPO SHRA BKN010

METARs OBSOLETI :
  • 180350Z 17009KT 8000 -RA FEW020 BKN050 13/12 Q1013
  • 180250Z 18011KT 9000 -RA SCT009 BKN061 13/12 Q1013
  • 180150Z 17011KT 9000 BKN009 13/12 Q1013

TAF TAF ENZV
Valido dal 18 a 00 ore il 19 a 00 ore UTC


1800/1824 18012KT 9999 -RA FEW010 BKN025
TEMPO 1800/1810 4000 SHRA BR BKN007 SCT020CB
Nessun NOTAM noto per questo aeroporto.



MetMap, La meteo Aeronautica in un colpo d'occhio ! - Copyright ORBIFLY Dicembre 2007 - Disclaimer

ORBIFLY MET'MAP TEAM :

Programmazione e sviluppo : Alexandra Zaïnal
Concezione e sviluppo : Baudouin d'Aumeries
Co-Programmazione e sviluppo : Marc-Olivier Méhu
Supporto tecnico e logistico : Manuel Goepfert
Aiuto per la traduzione : Arnaldo La Scala

Contatto : metmap@orbifly.com




FONTI E CREDITI :

   NOAA